Time;durP1;ratioP1;P1;durP2;ratioP2;P2;SDS_P1;SDS_P2;PMS_P1;PMS_P2;Temp;Humidity;BMP_temperature;BMP_pressure;BME280_temperature;BME280_humidity;BME280_pressure;Samples;Min_cycle;Max_cycle;Signal;HPM_P1;HPM_P2
2023/06/25 00:00:56;;;;;;;10.27;6.55;;;19.60;99.90;;;;;;4958528;28;20039;-61
2023/06/25 00:03:23;;;;;;;7.72;6.10;;;19.50;99.90;;;;;;4957195;28;20489;-61
2023/06/25 00:05:49;;;;;;;7.00;5.90;;;19.40;99.90;;;;;;4955619;28;20444;-60
2023/06/25 00:08:16;;;;;;;10.30;5.80;;;19.30;99.90;;;;;;4956933;28;20037;-61
2023/06/25 00:10:41;;;;;;;6.63;5.93;;;19.30;99.90;;;;;;4945495;28;20126;-61
2023/06/25 00:13:08;;;;;;;9.73;6.35;;;19.30;99.90;;;;;;4964817;28;20039;-61
2023/06/25 00:15:33;;;;;;;7.18;6.10;;;19.40;99.90;;;;;;4958016;28;20043;-61
2023/06/25 00:17:59;;;;;;;9.52;6.18;;;19.50;99.90;;;;;;4955702;28;20034;-61
2023/06/25 00:20:26;;;;;;;7.50;6.40;;;19.50;99.90;;;;;;4958141;28;20035;-61
2023/06/25 00:22:52;;;;;;;8.65;5.85;;;19.50;99.90;;;;;;4956744;28;20035;-60
2023/06/25 00:25:18;;;;;;;7.03;5.88;;;19.60;99.90;;;;;;4957452;28;20074;-61
2023/06/25 00:27:47;;;;;;;5.57;5.03;;;19.60;99.90;;;;;;4962968;28;20035;-60
2023/06/25 00:30:17;;;;;;;7.95;4.88;;;19.70;99.90;;;;;;4945056;28;20030;-61
2023/06/25 00:32:44;;;;;;;8.32;5.22;;;19.70;99.90;;;;;;4960258;28;20097;-60
2023/06/25 00:35:11;;;;;;;6.15;5.45;;;19.60;99.90;;;;;;4942959;28;20038;-60
2023/06/25 00:37:38;;;;;;;7.72;5.00;;;19.70;99.90;;;;;;4956653;28;20122;-61
2023/06/25 00:40:07;;;;;;;9.20;4.88;;;19.60;99.90;;;;;;4938907;28;20027;-61
2023/06/25 00:42:43;;;;;;;6.43;4.68;;;19.60;99.90;;;;;;4956282;28;20120;-60
2023/06/25 00:45:11;;;;;;;6.57;5.40;;;19.60;99.90;;;;;;4956964;28;20138;-60
2023/06/25 00:47:41;;;;;;;5.82;5.07;;;19.50;99.90;;;;;;4961801;28;20593;-61
2023/06/25 00:50:11;;;;;;;7.47;4.93;;;19.50;99.90;;;;;;4940430;28;20055;-61
2023/06/25 00:52:38;;;;;;;6.93;4.90;;;19.40;99.90;;;;;;4957269;28;20141;-61
2023/06/25 00:55:08;;;;;;;9.13;5.78;;;19.30;99.90;;;;;;4940469;28;20085;-61
2023/06/25 00:57:35;;;;;;;9.00;5.10;;;19.30;99.90;;;;;;4955433;28;20035;-61
2023/06/25 01:00:04;;;;;;;5.57;4.78;;;19.20;99.90;;;;;;4956525;28;20490;-61
2023/06/25 01:02:48;;;;;;;5.72;4.95;;;19.10;99.90;;;;;;4960072;28;20801;-61
2023/06/25 01:05:39;;;;;;;5.72;5.07;;;19.00;99.90;;;;;;4960288;28;20085;-60
2023/06/25 01:08:09;;;;;;;7.13;5.43;;;18.90;99.90;;;;;;4961025;28;20026;-61
2023/06/25 01:10:36;;;;;;;5.70;5.03;;;18.90;99.90;;;;;;4962268;28;20108;-60
2023/06/25 01:13:02;;;;;;;5.57;4.65;;;18.80;99.90;;;;;;4947738;28;20674;-61
2023/06/25 01:15:28;;;;;;;7.53;5.18;;;18.80;99.90;;;;;;4940620;28;20398;-61
2023/06/25 01:17:57;;;;;;;7.30;4.70;;;18.80;99.90;;;;;;4958895;28;20519;-60
2023/06/25 01:20:27;;;;;;;6.95;5.35;;;18.80;99.90;;;;;;4952663;28;20041;-61
2023/06/25 01:22:57;;;;;;;6.78;5.28;;;18.70;99.90;;;;;;4965237;28;20039;-61
2023/06/25 01:25:24;;;;;;;8.32;5.60;;;18.60;99.90;;;;;;4950429;28;20553;-61
2023/06/25 01:27:50;;;;;;;8.98;5.78;;;18.60;99.90;;;;;;4948319;28;20506;-60
2023/06/25 01:30:18;;;;;;;8.27;5.20;;;18.50;99.90;;;;;;4961024;28;20042;-61
2023/06/25 01:32:44;;;;;;;6.15;5.47;;;18.50;99.90;;;;;;4958787;28;20027;-61
2023/06/25 01:35:15;;;;;;;8.02;5.78;;;18.40;99.90;;;;;;4960202;28;20099;-61
2023/06/25 01:37:41;;;;;;;7.32;5.75;;;18.40;99.90;;;;;;4953560;28;20130;-61
2023/06/25 01:40:08;;;;;;;8.10;5.65;;;18.30;99.90;;;;;;4966129;28;20157;-61
2023/06/25 01:42:37;;;;;;;8.90;5.95;;;18.30;99.90;;;;;;4962524;28;20475;-61
2023/06/25 01:45:03;;;;;;;6.63;5.75;;;18.30;99.90;;;;;;4946156;28;20045;-61
2023/06/25 01:47:29;;;;;;;7.38;5.95;;;18.20;99.90;;;;;;4961327;28;20023;-61
2023/06/25 01:49:55;;;;;;;8.38;6.25;;;18.30;99.90;;;;;;4959896;28;20121;-61
2023/06/25 01:52:21;;;;;;;7.60;6.75;;;18.20;99.90;;;;;;4945227;28;20038;-61
2023/06/25 01:54:47;;;;;;;9.93;6.90;;;18.20;99.90;;;;;;4961589;28;20123;-61
2023/06/25 01:57:14;;;;;;;9.13;6.30;;;18.30;99.90;;;;;;4964933;28;20697;-61
2023/06/25 01:59:40;;;;;;;8.77;6.82;;;18.20;99.90;;;;;;4952906;28;20038;-61
2023/06/25 02:02:06;;;;;;;9.05;6.65;;;18.30;99.90;;;;;;4948870;28;20461;-61
2023/06/25 02:04:32;;;;;;;8.85;6.68;;;18.30;99.90;;;;;;4961401;28;20042;-61
2023/06/25 02:06:58;;;;;;;7.82;6.72;;;18.30;99.90;;;;;;4960568;28;20035;-61
2023/06/25 02:09:25;;;;;;;7.07;6.38;;;18.30;99.90;;;;;;4959011;28;20035;-61
2023/06/25 02:11:51;;;;;;;8.85;6.80;;;18.30;99.90;;;;;;4956339;28;20027;-61
2023/06/25 02:14:17;;;;;;;7.18;6.30;;;18.30;99.90;;;;;;4954098;28;20054;-61
2023/06/25 02:16:43;;;;;;;9.13;6.93;;;18.40;99.90;;;;;;4945508;28;20048;-61
2023/06/25 02:19:10;;;;;;;7.70;6.43;;;18.40;99.90;;;;;;4943802;28;20466;-61
2023/06/25 02:21:36;;;;;;;8.27;6.22;;;18.40;99.90;;;;;;4961083;28;20093;-61
2023/06/25 02:24:05;;;;;;;7.43;6.13;;;18.50;99.90;;;;;;4958035;28;20027;-61
2023/06/25 02:26:31;;;;;;;8.30;6.22;;;18.50;99.90;;;;;;4946882;28;20451;-61
2023/06/25 02:28:57;;;;;;;8.15;5.95;;;18.50;99.90;;;;;;4940613;28;20063;-61
2023/06/25 02:31:23;;;;;;;9.38;5.90;;;18.50;99.90;;;;;;4960707;28;20054;-61
2023/06/25 02:33:50;;;;;;;8.80;6.20;;;18.50;99.90;;;;;;4961222;28;20514;-61
2023/06/25 02:36:16;;;;;;;6.97;5.18;;;18.50;99.90;;;;;;4963809;28;20037;-61
2023/06/25 02:38:42;;;;;;;7.30;5.95;;;18.50;99.90;;;;;;4955986;28;20486;-61
2023/06/25 02:41:07;;;;;;;10.85;5.80;;;18.50;99.90;;;;;;4958660;28;20113;-61
2023/06/25 02:43:33;;;;;;;7.55;6.30;;;18.50;99.90;;;;;;4958795;28;20030;-61
2023/06/25 02:45:59;;;;;;;9.20;6.07;;;18.50;99.90;;;;;;4958392;28;20093;-60
2023/06/25 02:48:25;;;;;;;7.03;6.30;;;18.50;99.90;;;;;;4951357;28;20039;-60
2023/06/25 02:50:51;;;;;;;6.90;6.00;;;18.60;99.90;;;;;;4953149;28;20137;-61
2023/06/25 02:53:16;;;;;;;9.80;6.63;;;18.50;99.90;;;;;;4948737;28;20034;-61
2023/06/25 02:55:42;;;;;;;8.50;6.90;;;18.60;99.90;;;;;;4960982;28;20030;-61
2023/06/25 02:58:08;;;;;;;8.75;6.80;;;18.60;99.90;;;;;;4963610;28;20042;-61
2023/06/25 03:00:35;;;;;;;8.50;7.18;;;18.60;99.90;;;;;;4959583;28;20031;-61
2023/06/25 03:03:01;;;;;;;7.43;6.20;;;18.60;99.90;;;;;;4957215;28;20604;-61
2023/06/25 03:05:26;;;;;;;7.75;6.82;;;18.70;99.90;;;;;;4939891;28;20034;-60
2023/06/25 03:07:57;;;;;;;9.65;6.53;;;18.70;99.90;;;;;;4962839;28;20058;-61
2023/06/25 03:10:28;;;;;;;8.00;6.75;;;18.70;99.90;;;;;;4946472;28;20031;-60
2023/06/25 03:12:56;;;;;;;10.73;7.55;;;18.80;99.90;;;;;;4961403;28;20056;-61
2023/06/25 03:15:22;;;;;;;9.65;6.90;;;18.80;99.90;;;;;;4961307;28;20071;-61
2023/06/25 03:17:48;;;;;;;10.23;7.50;;;18.80;99.90;;;;;;4940176;28;20031;-61
2023/06/25 03:20:15;;;;;;;9.55;7.22;;;18.80;99.90;;;;;;4947927;28;20027;-61
2023/06/25 03:22:41;;;;;;;8.95;7.25;;;18.90;99.90;;;;;;4954934;28;20038;-61
2023/06/25 03:25:08;;;;;;;11.27;7.13;;;18.90;99.90;;;;;;4943522;28;20027;-61
2023/06/25 03:27:36;;;;;;;7.22;6.32;;;18.90;99.90;;;;;;4946899;28;20123;-61
2023/06/25 03:30:04;;;;;;;7.88;6.72;;;18.90;99.90;;;;;;4961286;28;20042;-60
2023/06/25 03:32:31;;;;;;;6.78;5.97;;;18.90;99.90;;;;;;4946717;28;20058;-60
2023/06/25 03:34:57;;;;;;;8.45;6.65;;;18.90;99.90;;;;;;4958788;28;20427;-61
2023/06/25 03:37:23;;;;;;;8.82;6.53;;;18.90;99.90;;;;;;4939863;28;20455;-61
2023/06/25 03:39:49;;;;;;;6.93;6.22;;;19.00;99.90;;;;;;4938998;28;20450;-60
2023/06/25 03:42:15;;;;;;;11.68;7.13;;;19.00;99.90;;;;;;4949617;28;20031;-60
2023/06/25 03:44:54;;;;;;;7.55;6.35;;;19.10;99.90;;;;;;4962895;28;20045;-60
2023/06/25 03:47:24;;;;;;;8.98;6.55;;;19.10;99.90;;;;;;4944547;28;20049;-60
2023/06/25 03:49:50;;;;;;;7.53;6.18;;;19.20;99.90;;;;;;4945952;28;20035;-60
2023/06/25 03:52:16;;;;;;;7.60;6.35;;;19.20;99.90;;;;;;4939482;29;20035;-60
2023/06/25 03:54:42;;;;;;;10.90;6.55;;;19.20;99.90;;;;;;4940572;28;20042;-61
2023/06/25 03:57:09;;;;;;;8.35;6.40;;;19.30;99.90;;;;;;4955960;28;20042;-61
2023/06/25 03:59:34;;;;;;;6.65;5.97;;;19.30;99.90;;;;;;4956613;28;20039;-60
2023/06/25 04:02:00;;;;;;;8.35;6.22;;;19.40;99.90;;;;;;4961551;28;20122;-61
2023/06/25 04:04:26;;;;;;;7.75;6.32;;;19.40;99.90;;;;;;4946666;28;20812;-61
2023/06/25 04:06:53;;;;;;;7.38;6.30;;;19.40;99.90;;;;;;4958155;28;20058;-61
2023/06/25 04:09:19;;;;;;;6.88;6.13;;;19.50;99.90;;;;;;4945375;28;20650;-61
2023/06/25 04:11:45;;;;;;;8.05;6.28;;;19.60;99.90;;;;;;4954846;28;20407;-61
2023/06/25 04:14:12;;;;;;;7.95;6.68;;;19.60;99.90;;;;;;4956068;28;20031;-61
2023/06/25 04:16:38;;;;;;;7.68;6.13;;;19.60;99.90;;;;;;4956692;28;20046;-60
2023/06/25 04:19:04;;;;;;;8.80;6.45;;;19.60;99.90;;;;;;4945435;28;20027;-61
2023/06/25 04:21:31;;;;;;;7.97;6.72;;;19.70;99.90;;;;;;4950507;28;20059;-61
2023/06/25 04:23:57;;;;;;;8.55;6.60;;;19.70;99.90;;;;;;4960472;28;20135;-61
2023/06/25 04:26:22;;;;;;;10.65;5.97;;;19.70;99.90;;;;;;4942534;28;20746;-61
2023/06/25 04:28:48;;;;;;;6.65;5.63;;;19.70;99.90;;;;;;4955315;28;20047;-61
2023/06/25 04:31:14;;;;;;;7.32;6.38;;;19.80;99.90;;;;;;4957875;28;20034;-61
2023/06/25 04:33:41;;;;;;;7.35;5.97;;;19.90;99.90;;;;;;4954290;28;20037;-61
2023/06/25 04:36:10;;;;;;;6.55;5.85;;;19.90;99.90;;;;;;4959659;28;20486;-61
2023/06/25 04:38:36;;;;;;;6.00;5.40;;;20.00;99.90;;;;;;4961692;28;20376;-61
2023/06/25 04:41:03;;;;;;;7.30;5.82;;;20.10;99.90;;;;;;4949174;28;20623;-61
2023/06/25 04:43:29;;;;;;;6.70;5.82;;;20.10;99.90;;;;;;4965272;28;20074;-61
2023/06/25 04:45:57;;;;;;;7.35;5.85;;;20.10;99.90;;;;;;4947211;28;20136;-61
2023/06/25 04:48:23;;;;;;;7.60;6.35;;;20.20;99.90;;;;;;4943367;28;20545;-61
2023/06/25 04:50:49;;;;;;;8.60;6.10;;;20.20;99.90;;;;;;4957553;28;20071;-61
2023/06/25 04:53:14;;;;;;;6.32;5.68;;;20.30;99.90;;;;;;4967528;28;20037;-61
2023/06/25 04:55:40;;;;;;;6.95;5.90;;;20.30;99.90;;;;;;4965592;28;20053;-59
2023/06/25 04:58:06;;;;;;;6.93;6.07;;;20.30;99.90;;;;;;4965094;28;20041;-61
2023/06/25 05:00:32;;;;;;;6.57;5.38;;;20.30;99.90;;;;;;4963218;28;20486;-61
2023/06/25 05:02:58;;;;;;;9.25;6.68;;;20.30;99.90;;;;;;4962318;28;20031;-61
2023/06/25 05:05:23;;;;;;;6.90;5.80;;;20.40;99.90;;;;;;4960902;28;20059;-61
2023/06/25 05:07:49;;;;;;;7.10;5.82;;;20.40;99.90;;;;;;4958179;28;20805;-61
2023/06/25 05:10:16;;;;;;;7.38;6.10;;;20.50;99.90;;;;;;4963885;28;20422;-61
2023/06/25 05:12:41;;;;;;;7.18;5.78;;;20.50;99.90;;;;;;4963083;28;20118;-61
2023/06/25 05:15:08;;;;;;;7.45;6.13;;;20.60;99.90;;;;;;4966336;28;20539;-61
2023/06/25 05:17:33;;;;;;;6.97;5.88;;;20.70;99.90;;;;;;4963029;28;20118;-61
2023/06/25 05:19:59;;;;;;;8.55;5.97;;;20.80;99.90;;;;;;4962550;28;20037;-61
2023/06/25 05:22:25;;;;;;;6.97;5.68;;;20.90;99.90;;;;;;4961113;28;20033;-61
2023/06/25 05:24:51;;;;;;;6.82;5.90;;;20.90;99.90;;;;;;4959232;28;20781;-60
2023/06/25 05:27:17;;;;;;;7.07;5.65;;;20.90;99.90;;;;;;4960006;28;20438;-61
2023/06/25 05:29:43;;;;;;;6.80;6.05;;;20.90;99.90;;;;;;4965784;28;20046;-61
2023/06/25 05:32:08;;;;;;;7.68;5.88;;;21.00;99.90;;;;;;4965533;28;20046;-61
2023/06/25 05:34:34;;;;;;;7.57;5.85;;;21.00;99.90;;;;;;4964762;28;20038;-61
2023/06/25 05:37:00;;;;;;;7.28;5.30;;;21.10;99.90;;;;;;4962087;28;20070;-61
2023/06/25 05:39:29;;;;;;;7.18;5.50;;;21.20;99.90;;;;;;4960655;28;20035;-61
2023/06/25 05:41:58;;;;;;;6.78;5.70;;;21.30;99.90;;;;;;4961110;28;20018;-61
2023/06/25 05:44:25;;;;;;;7.45;6.10;;;21.40;99.90;;;;;;4957839;28;20031;-61
2023/06/25 05:46:51;;;;;;;7.55;5.60;;;21.40;99.90;;;;;;4964651;28;20459;-60
2023/06/25 05:49:17;;;;;;;6.13;5.53;;;21.50;99.90;;;;;;4966299;28;20045;-61
2023/06/25 05:51:43;;;;;;;6.13;5.53;;;21.50;99.90;;;;;;4962156;28;20042;-61
2023/06/25 05:54:09;;;;;;;6.88;5.80;;;21.50;99.90;;;;;;4962650;28;20035;-61
2023/06/25 05:56:35;;;;;;;9.38;6.47;;;21.60;99.90;;;;;;4960013;28;20804;-61
2023/06/25 05:59:00;;;;;;;6.53;5.80;;;21.70;99.90;;;;;;4941619;28;20625;-60
2023/06/25 06:01:26;;;;;;;6.32;5.72;;;21.70;99.90;;;;;;4958164;28;20166;-60
2023/06/25 06:03:52;;;;;;;6.82;5.72;;;21.80;99.90;;;;;;4964992;28;20039;-61
2023/06/25 06:06:18;;;;;;;6.22;5.63;;;21.80;99.90;;;;;;4965364;28;20769;-60
2023/06/25 06:08:44;;;;;;;8.55;6.57;;;21.90;99.90;;;;;;4962329;28;20041;-61
2023/06/25 06:11:10;;;;;;;8.02;6.05;;;21.90;99.90;;;;;;4963093;28;20038;-61
2023/06/25 06:13:36;;;;;;;6.32;5.57;;;22.00;99.90;;;;;;4960279;28;20062;-61
2023/06/25 06:16:03;;;;;;;6.03;5.35;;;22.10;99.90;;;;;;4958927;28;20098;-61
2023/06/25 06:18:29;;;;;;;6.72;5.95;;;22.10;99.90;;;;;;4956850;28;20137;-61
2023/06/25 06:20:55;;;;;;;6.57;5.45;;;22.20;99.90;;;;;;4961462;28;20138;-61
2023/06/25 06:23:20;;;;;;;7.15;5.28;;;22.30;99.90;;;;;;4965779;28;20066;-61
2023/06/25 06:25:46;;;;;;;6.18;5.57;;;22.40;99.90;;;;;;4963463;28;20082;-61
2023/06/25 06:28:12;;;;;;;6.97;5.80;;;22.40;99.90;;;;;;4963729;28;20134;-61
2023/06/25 06:30:38;;;;;;;7.72;6.28;;;22.60;99.90;;;;;;4960481;28;20058;-61
2023/06/25 06:33:03;;;;;;;6.40;5.70;;;22.60;99.90;;;;;;4961230;28;20547;-61
2023/06/25 06:35:29;;;;;;;5.85;5.18;;;22.70;99.90;;;;;;4958117;28;20076;-61
2023/06/25 06:37:55;;;;;;;7.78;5.85;;;22.80;99.90;;;;;;4956951;28;20042;-61
2023/06/25 06:40:21;;;;;;;6.85;5.50;;;22.80;99.90;;;;;;4954216;28;20474;-61
2023/06/25 06:42:47;;;;;;;8.80;5.88;;;22.80;99.90;;;;;;4964093;28;20027;-61
2023/06/25 06:45:12;;;;;;;6.25;5.53;;;22.90;99.90;;;;;;4963213;28;20031;-61
2023/06/25 06:47:38;;;;;;;9.25;6.15;;;22.90;99.90;;;;;;4959776;28;20041;-61
2023/06/25 06:50:06;;;;;;;6.35;5.18;;;23.00;99.90;;;;;;4959055;28;20067;-61
2023/06/25 06:52:32;;;;;;;7.03;5.82;;;23.00;99.90;;;;;;4957574;28;20034;-61
2023/06/25 06:54:58;;;;;;;8.55;6.07;;;23.00;99.90;;;;;;4957806;28;20140;-61
2023/06/25 06:57:23;;;;;;;7.28;5.32;;;23.10;99.90;;;;;;4961534;28;20034;-61
2023/06/25 06:59:49;;;;;;;9.00;6.38;;;23.10;99.90;;;;;;4963475;28;20027;-61
2023/06/25 07:02:15;;;;;;;6.53;5.82;;;23.10;99.90;;;;;;4963535;28;20121;-61
2023/06/25 07:04:41;;;;;;;6.07;5.40;;;23.10;99.90;;;;;;4959683;28;20035;-61
2023/06/25 07:07:07;;;;;;;5.82;5.25;;;23.20;99.90;;;;;;4962001;28;20098;-61
2023/06/25 07:09:33;;;;;;;6.45;5.22;;;23.30;99.90;;;;;;4957474;28;20406;-61
2023/06/25 07:11:58;;;;;;;5.82;5.15;;;23.30;99.90;;;;;;4958250;28;20732;-61
2023/06/25 07:14:24;;;;;;;6.18;5.57;;;23.40;99.90;;;;;;4961622;28;20038;-61
2023/06/25 07:16:50;;;;;;;7.72;5.10;;;23.50;99.90;;;;;;4963560;28;20100;-61
2023/06/25 07:19:16;;;;;;;6.60;5.68;;;23.60;99.90;;;;;;4963001;28;20041;-61
2023/06/25 07:21:41;;;;;;;7.75;6.05;;;23.70;99.90;;;;;;4959991;28;20034;-61
2023/06/25 07:24:07;;;;;;;6.80;5.93;;;23.70;99.90;;;;;;4961064;28;20110;-61
2023/06/25 07:26:33;;;;;;;6.32;5.07;;;23.70;99.90;;;;;;4957619;28;20054;-61
2023/06/25 07:28:59;;;;;;;10.18;6.10;;;23.70;99.90;;;;;;4957708;28;20042;-61
2023/06/25 07:31:25;;;;;;;7.97;5.35;;;23.80;99.90;;;;;;4957853;28;20058;-61
2023/06/25 07:33:50;;;;;;;6.90;5.75;;;23.80;99.90;;;;;;4963388;28;20142;-61
2023/06/25 07:36:19;;;;;;;6.32;5.72;;;23.90;99.90;;;;;;4963129;28;20453;-61
2023/06/25 07:38:45;;;;;;;6.03;5.20;;;24.00;99.90;;;;;;4959730;28;20047;-61
2023/06/25 07:41:10;;;;;;;7.78;5.57;;;24.10;99.90;;;;;;4960952;28;20026;-61
2023/06/25 07:43:36;;;;;;;7.18;5.60;;;24.20;99.90;;;;;;4958477;28;20660;-61
2023/06/25 07:46:02;;;;;;;5.53;5.00;;;24.30;99.90;;;;;;4958427;28;20951;-61
2023/06/25 07:48:28;;;;;;;6.53;5.82;;;24.30;99.90;;;;;;4954738;28;20039;-61
2023/06/25 07:50:53;;;;;;;6.75;5.55;;;24.40;99.90;;;;;;4963059;28;20039;-61
2023/06/25 07:53:19;;;;;;;6.88;5.47;;;24.40;99.90;;;;;;4963725;28;20092;-61
2023/06/25 07:55:46;;;;;;;5.90;5.30;;;24.50;99.80;;;;;;4960466;28;20130;-61
2023/06/25 07:58:12;;;;;;;6.80;5.30;;;24.50;99.90;;;;;;4960901;28;20039;-61
2023/06/25 08:00:38;;;;;;;6.10;5.50;;;24.60;99.90;;;;;;4957416;28;20050;-61
2023/06/25 08:03:04;;;;;;;7.45;5.63;;;24.70;99.20;;;;;;4957544;28;20093;-61
2023/06/25 08:05:30;;;;;;;6.82;5.28;;;24.80;99.50;;;;;;4955123;28;20151;-61
2023/06/25 08:07:58;;;;;;;5.88;5.28;;;24.90;99.10;;;;;;4963138;28;20066;-60
2023/06/25 08:10:24;;;;;;;7.93;5.90;;;25.00;99.30;;;;;;4963973;28;20546;-61
2023/06/25 08:12:51;;;;;;;7.88;5.32;;;25.20;99.70;;;;;;4957058;28;20082;-60
2023/06/25 08:15:17;;;;;;;6.00;5.40;;;25.40;99.30;;;;;;4957518;28;20023;-61
2023/06/25 08:17:43;;;;;;;7.80;5.10;;;25.60;98.50;;;;;;4959099;28;20046;-61
2023/06/25 08:20:09;;;;;;;6.10;5.43;;;25.60;98.60;;;;;;4958892;28;20134;-61
2023/06/25 08:22:35;;;;;;;5.80;5.20;;;25.70;99.00;;;;;;4954589;28;20032;-61
2023/06/25 08:25:05;;;;;;;6.78;5.53;;;25.80;98.30;;;;;;4960430;28;20023;-61
2023/06/25 08:27:31;;;;;;;6.50;5.40;;;25.90;97.50;;;;;;4959636;28;20034;-61
2023/06/25 08:29:57;;;;;;;6.30;5.13;;;25.90;96.60;;;;;;4961318;28;20035;-61
2023/06/25 08:32:22;;;;;;;7.80;5.10;;;26.00;96.70;;;;;;4958811;28;20043;-61
2023/06/25 08:34:48;;;;;;;5.45;4.95;;;26.00;95.80;;;;;;4957903;28;20133;-62
2023/06/25 08:37:14;;;;;;;11.48;5.97;;;26.00;95.70;;;;;;4958871;28;20039;-61
2023/06/25 08:39:40;;;;;;;5.35;4.85;;;26.10;95.90;;;;;;4956152;28;20027;-61
2023/06/25 08:42:06;;;;;;;5.43;4.78;;;26.10;96.20;;;;;;4954349;28;20106;-61
2023/06/25 08:44:32;;;;;;;9.90;5.25;;;26.30;96.60;;;;;;4960145;28;20770;-61
2023/06/25 08:46:58;;;;;;;5.50;4.43;;;26.40;96.10;;;;;;4961574;28;20114;-61
2023/06/25 08:49:29;;;;;;;6.13;5.28;;;26.50;95.30;;;;;;4958918;28;20043;-61
2023/06/25 08:51:57;;;;;;;5.80;5.05;;;26.60;95.20;;;;;;4959084;28;20062;-61
2023/06/25 08:54:22;;;;;;;5.50;4.95;;;26.70;94.30;;;;;;4958394;28;20388;-61
2023/06/25 08:56:48;;;;;;;6.45;4.65;;;26.60;94.20;;;;;;4955451;28;20054;-61
2023/06/25 08:59:14;;;;;;;5.68;4.47;;;26.70;94.50;;;;;;4956126;28;20042;-61
2023/06/25 09:01:40;;;;;;;8.48;4.60;;;26.70;93.30;;;;;;4960237;28;20109;-61
2023/06/25 09:04:06;;;;;;;4.80;4.20;;;26.70;93.90;;;;;;4962744;28;20027;-61
2023/06/25 09:06:39;;;;;;;6.50;4.60;;;26.90;93.40;;;;;;4961378;28;20156;-61
2023/06/25 09:09:05;;;;;;;5.60;4.30;;;27.00;93.40;;;;;;4960058;28;20031;-61
2023/06/25 09:11:34;;;;;;;8.23;4.50;;;27.00;93.50;;;;;;4957509;28;20564;-61
2023/06/25 09:14:02;;;;;;;7.05;4.55;;;27.10;92.70;;;;;;4956776;28;20691;-61
2023/06/25 09:16:28;;;;;;;5.85;5.03;;;27.00;92.40;;;;;;4954795;28;20074;-61
2023/06/25 09:18:54;;;;;;;6.35;4.82;;;27.10;92.60;;;;;;4961922;28;20065;-61
2023/06/25 09:21:19;;;;;;;5.35;4.82;;;27.10;92.60;;;;;;4962919;28;20038;-61
2023/06/25 09:23:53;;;;;;;6.80;5.00;;;27.20;93.00;;;;;;4955831;28;20078;-61
2023/06/25 09:26:19;;;;;;;8.23;4.93;;;27.30;93.30;;;;;;4935409;28;20043;-61
2023/06/25 09:28:51;;;;;;;5.90;4.70;;;27.30;92.50;;;;;;4961154;28;20110;-61
2023/06/25 09:31:18;;;;;;;4.95;4.45;;;27.40;92.40;;;;;;4961016;28;20143;-62
2023/06/25 09:33:50;;;;;;;4.82;4.43;;;27.40;92.50;;;;;;4959394;28;20065;-61
2023/06/25 09:36:17;;;;;;;5.15;4.50;;;27.40;92.10;;;;;;4963207;28;20061;-61
2023/06/25 09:38:46;;;;;;;4.93;4.43;;;27.50;91.80;;;;;;4965048;28;20039;-61
2023/06/25 09:41:15;;;;;;;5.95;4.50;;;27.60;90.70;;;;;;4965106;28;20451;-61
2023/06/25 09:43:43;;;;;;;5.18;4.68;;;27.70;90.50;;;;;;4963450;28;20035;-61
2023/06/25 09:46:10;;;;;;;6.20;4.35;;;27.70;90.90;;;;;;4962229;28;20026;-61
2023/06/25 09:48:37;;;;;;;5.40;4.50;;;27.70;90.50;;;;;;4958519;28;20031;-61
2023/06/25 09:51:06;;;;;;;4.90;4.38;;;27.70;90.10;;;;;;4958757;28;20031;-61
2023/06/25 09:53:37;;;;;;;6.20;4.55;;;27.60;88.10;;;;;;4959444;28;20035;-61
2023/06/25 09:56:06;;;;;;;6.65;5.07;;;27.70;89.00;;;;;;4965761;28;20086;-61
2023/06/25 09:58:32;;;;;;;4.55;4.10;;;27.70;89.30;;;;;;4963727;28;20058;-61
2023/06/25 10:00:58;;;;;;;6.63;4.40;;;27.70;89.10;;;;;;4950631;28;20506;-60
2023/06/25 10:03:24;;;;;;;7.45;5.25;;;27.50;89.00;;;;;;4954918;28;20038;-62
2023/06/25 10:05:51;;;;;;;6.90;5.10;;;27.40;89.00;;;;;;4958029;28;20119;-62
2023/06/25 10:08:19;;;;;;;5.30;4.68;;;27.30;90.40;;;;;;4962326;28;20046;-64
2023/06/25 10:10:59;;;;;;;6.53;4.78;;;27.20;90.30;;;;;;4960430;28;20117;-62
2023/06/25 10:13:25;;;;;;;6.75;4.32;;;27.20;90.20;;;;;;4959257;28;20034;-62
2023/06/25 10:16:04;;;;;;;6.85;5.03;;;27.20;90.20;;;;;;4961418;28;20035;-62
2023/06/25 10:18:30;;;;;;;5.40;4.63;;;27.20;89.10;;;;;;4953627;28;20131;-63
2023/06/25 10:21:01;;;;;;;4.95;4.40;;;27.20;88.20;;;;;;4960588;28;20094;-63
2023/06/25 10:23:29;;;;;;;5.95;4.30;;;27.20;89.50;;;;;;4960134;28;20571;-63
2023/06/25 10:25:59;;;;;;;7.47;4.25;;;27.20;85.90;;;;;;4959104;28;20042;-63
2023/06/25 10:28:34;;;;;;;5.38;4.07;;;27.20;88.40;;;;;;4959277;28;20044;-61
2023/06/25 10:31:10;;;;;;;;;;;27.40;89.30;;;;;;4966213;28;20030;-61
2023/06/25 10:33:38;;;;;;;4.25;3.85;;;27.60;87.90;;;;;;4963266;28;19910;-61
2023/06/25 10:36:08;;;;;;;6.20;4.10;;;27.80;85.90;;;;;;4965631;28;20845;-62
2023/06/25 10:38:34;;;;;;;7.35;4.60;;;28.00;84.10;;;;;;4960875;28;20030;-63
2023/06/25 10:41:00;;;;;;;5.93;4.65;;;28.10;83.50;;;;;;4942493;28;20140;-62
2023/06/25 10:43:26;;;;;;;7.05;4.63;;;28.30;83.80;;;;;;4959854;28;20621;-62
2023/06/25 10:45:53;;;;;;;6.45;4.50;;;28.40;81.00;;;;;;4957198;28;20034;-62
2023/06/25 10:48:20;;;;;;;8.60;4.88;;;28.70;80.40;;;;;;4965893;28;20042;-62
2023/06/25 10:50:46;;;;;;;4.55;4.07;;;28.90;79.70;;;;;;4965266;28;20101;-62
2023/06/25 10:53:21;;;;;;;7.00;5.93;;;29.10;78.70;;;;;;4963766;28;20038;-62
2023/06/25 10:55:51;;;;;;;7.68;4.53;;;29.20;80.40;;;;;;4959998;28;20035;-62
2023/06/25 10:58:19;;;;;;;8.38;4.65;;;29.60;76.60;;;;;;4960914;28;20030;-62
2023/06/25 11:00:51;;;;;;;8.85;5.10;;;29.90;75.10;;;;;;4959695;28;20670;-62
2023/06/25 11:03:17;;;;;;;5.65;4.63;;;30.00;76.50;;;;;;4962007;28;20142;-64
2023/06/25 11:05:45;;;;;;;6.30;4.82;;;29.90;75.10;;;;;;4963069;28;20117;-62
2023/06/25 11:08:12;;;;;;;5.57;4.32;;;29.80;77.40;;;;;;4961655;28;20082;-62
2023/06/25 11:10:39;;;;;;;4.60;3.67;;;29.60;75.30;;;;;;4962241;28;20758;-62
2023/06/25 11:13:12;;;;;;;5.93;4.05;;;29.30;75.30;;;;;;4960207;28;20037;-62
2023/06/25 11:15:40;;;;;;;7.40;4.18;;;29.20;76.80;;;;;;4958394;28;20086;-62
2023/06/25 11:18:08;;;;;;;6.93;4.20;;;29.10;77.10;;;;;;4961918;28;20105;-62
2023/06/25 11:20:33;;;;;;;6.88;3.80;;;28.90;76.60;;;;;;4959738;28;20725;-62
2023/06/25 11:23:01;;;;;;;6.07;3.97;;;28.80;75.60;;;;;;4960512;28;20093;-62
2023/06/25 11:25:28;;;;;;;4.72;3.83;;;28.80;78.20;;;;;;4964611;28;20034;-62
2023/06/25 11:28:02;;;;;;;11.00;4.70;;;28.80;78.90;;;;;;4961754;28;20027;-62
2023/06/25 11:30:29;;;;;;;4.57;4.15;;;28.90;78.10;;;;;;4960092;28;20027;-62
2023/06/25 11:33:06;;;;;;;4.43;3.65;;;28.90;77.40;;;;;;4947881;28;20035;-63
2023/06/25 11:35:32;;;;;;;5.30;4.40;;;28.90;77.80;;;;;;4957648;28;20039;-62
2023/06/25 11:37:58;;;;;;;6.30;3.70;;;29.00;77.60;;;;;;4957037;28;20027;-62
2023/06/25 11:40:26;;;;;;;7.05;4.75;;;28.90;76.30;;;;;;4972979;28;20037;-62
2023/06/25 11:42:53;;;;;;;8.27;3.80;;;28.90;76.60;;;;;;4967758;28;20035;-62
2023/06/25 11:45:19;;;;;;;5.15;4.40;;;28.80;75.20;;;;;;4963099;28;20030;-62
2023/06/25 11:47:50;;;;;;;6.25;4.22;;;28.80;75.10;;;;;;4960016;28;20023;-62
2023/06/25 11:50:18;;;;;;;6.32;4.07;;;28.80;76.10;;;;;;4960400;28;20110;-62
2023/06/25 11:52:45;;;;;;;4.68;4.10;;;28.70;76.40;;;;;;4959179;28;20218;-62
2023/06/25 11:55:11;;;;;;;6.97;4.50;;;28.60;76.60;;;;;;4953410;28;20030;-62
2023/06/25 11:57:39;;;;;;;4.57;4.00;;;28.50;76.40;;;;;;4956509;28;20146;-62
2023/06/25 12:00:05;;;;;;;4.68;3.53;;;28.60;77.20;;;;;;4960371;28;20049;-62
2023/06/25 12:02:31;;;;;;;4.38;3.97;;;28.70;75.40;;;;;;4962850;28;20042;-62
2023/06/25 12:04:57;;;;;;;4.03;3.45;;;28.80;76.50;;;;;;4961051;28;20042;-62
2023/06/25 12:07:23;;;;;;;5.20;4.00;;;28.90;75.70;;;;;;4959059;28;20035;-63
2023/06/25 12:09:50;;;;;;;5.05;3.78;;;28.90;75.10;;;;;;4959390;28;20110;-64
2023/06/25 12:12:16;;;;;;;4.93;4.43;;;28.90;76.60;;;;;;4958359;28;20022;-64
2023/06/25 12:14:42;;;;;;;5.05;3.80;;;28.90;76.50;;;;;;4958294;28;20027;-63
2023/06/25 12:17:08;;;;;;;3.90;3.50;;;28.90;76.00;;;;;;4960563;28;20038;-63
2023/06/25 12:19:34;;;;;;;4.22;3.83;;;28.90;78.70;;;;;;4957301;28;20034;-64
2023/06/25 12:22:00;;;;;;;4.97;3.88;;;28.90;75.70;;;;;;4960721;28;20030;-64
2023/06/25 12:24:25;;;;;;;4.53;4.03;;;28.90;75.70;;;;;;4961443;28;20046;-64
2023/06/25 12:26:54;;;;;;;5.22;4.35;;;29.00;77.30;;;;;;4959531;28;20066;-63
2023/06/25 12:29:20;;;;;;;5.22;3.92;;;28.90;76.60;;;;;;4956749;28;20883;-63
2023/06/25 12:31:46;;;;;;;6.70;3.83;;;28.90;77.80;;;;;;4955429;28;20047;-63
2023/06/25 12:34:12;;;;;;;5.50;4.00;;;28.90;78.50;;;;;;4944077;28;20053;-63
2023/06/25 12:36:37;;;;;;;4.28;3.85;;;28.90;79.00;;;;;;4962413;28;20043;-63
2023/06/25 12:39:03;;;;;;;4.97;4.43;;;28.90;80.00;;;;;;4961852;28;20026;-63
2023/06/25 12:41:29;;;;;;;5.10;3.95;;;28.90;80.70;;;;;;4961576;28;20034;-63
2023/06/25 12:43:55;;;;;;;4.60;3.80;;;28.90;80.50;;;;;;4962181;28;20982;-63